Time;durP1;ratioP1;P1;durP2;ratioP2;P2;SDS_P1;SDS_P2;PMS_P1;PMS_P2;Temp;Humidity;BMP_temperature;BMP_pressure;BME280_temperature;BME280_humidity;BME280_pressure;Samples;Min_cycle;Max_cycle;Signal;HPM_P1;HPM_P2
2023/12/23 00:01:34;;;;;;;6.47;2.30;;;;;;;6.81;99.22;94947.78;4993528;28;20187;-81
2023/12/23 00:04:00;;;;;;;5.87;1.90;;;;;;;6.80;98.66;94972.78;4999400;28;20231;-81
2023/12/23 00:06:25;;;;;;;6.17;2.70;;;;;;;6.91;98.33;94956.31;4996050;28;20222;-81
2023/12/23 00:08:51;;;;;;;4.20;2.53;;;;;;;6.76;99.46;94957.69;4978994;28;20564;-80
2023/12/23 00:11:16;;;;;;;4.43;2.50;;;;;;;6.78;98.54;94972.06;4994713;28;20180;-80
2023/12/23 00:13:41;;;;;;;6.03;2.30;;;;;;;6.71;99.10;94970.19;4991058;28;20662;-81
2023/12/23 00:16:06;;;;;;;5.63;2.37;;;;;;;6.87;98.23;94957.53;4989639;28;20669;-81
2023/12/23 00:18:32;;;;;;;7.10;2.63;;;;;;;6.64;99.26;94974.28;4999300;28;20604;-81
2023/12/23 00:20:57;;;;;;;5.77;2.20;;;;;;;6.66;100.00;94972.38;4993105;28;20591;-81
2023/12/23 00:23:22;;;;;;;5.50;2.00;;;;;;;6.75;99.72;94974.94;4985321;28;20184;-82
2023/12/23 00:25:48;;;;;;;3.77;2.13;;;;;;;6.55;100.00;94944.16;4993044;28;20216;-80
2023/12/23 00:28:13;;;;;;;8.03;2.77;;;;;;;6.61;99.90;94979.69;4997353;28;20183;-81
2023/12/23 00:30:39;;;;;;;6.70;2.10;;;;;;;6.68;100.00;94988.53;4997636;28;20535;-81
2023/12/23 00:33:05;;;;;;;6.10;2.37;;;;;;;6.71;99.83;94990.81;4992029;28;20195;-81
2023/12/23 00:35:30;;;;;;;9.50;2.40;;;;;;;6.75;99.68;95003.31;4997170;28;20245;-81
2023/12/23 00:37:55;;;;;;;6.40;2.17;;;;;;;6.75;99.24;94987.84;4992194;28;20183;-81
2023/12/23 00:40:21;;;;;;;8.00;2.20;;;;;;;6.63;99.74;95011.38;4979419;28;20191;-80
2023/12/23 00:42:46;;;;;;;9.83;2.50;;;;;;;6.73;99.38;95018.13;4974815;28;20211;-81
2023/12/23 00:45:12;;;;;;;4.90;2.40;;;;;;;6.63;100.00;95025.06;5007838;28;20222;-81
2023/12/23 00:47:37;;;;;;;4.20;1.80;;;;;;;6.68;99.12;95037.56;4993671;28;20188;-82
2023/12/23 00:50:02;;;;;;;5.93;2.57;;;;;;;6.67;99.78;95033.34;4996784;28;20187;-81
2023/12/23 00:52:29;;;;;;;7.17;2.03;;;;;;;6.47;100.00;95017.88;4992847;28;20238;-80
2023/12/23 00:54:54;;;;;;;4.77;1.93;;;;;;;6.63;100.00;95027.66;4991228;28;20650;-82
2023/12/23 00:57:20;;;;;;;6.20;2.27;;;;;;;6.71;99.66;95021.78;4993587;28;20214;-81
2023/12/23 00:59:46;;;;;;;5.03;2.13;;;;;;;6.60;100.00;95034.84;4993937;28;20183;-81
2023/12/23 01:02:11;;;;;;;6.33;2.00;;;;;;;6.73;100.00;95043.13;4993575;28;20266;-82
2023/12/23 01:04:38;;;;;;;3.63;1.70;;;;;;;6.74;99.79;95058.47;4990938;28;20208;-81
2023/12/23 01:07:03;;;;;;;4.37;1.50;;;;;;;6.75;99.43;95064.44;4976462;28;20218;-81
2023/12/23 01:09:30;;;;;;;5.33;1.80;;;;;;;6.67;100.00;95077.22;4997556;28;20654;-81
2023/12/23 01:11:55;;;;;;;4.00;1.83;;;;;;;6.76;100.00;95087.53;4996983;28;20765;-81
2023/12/23 01:14:20;;;;;;;6.67;2.50;;;;;;;6.79;99.68;95086.44;4990220;28;20180;-81
2023/12/23 01:16:46;;;;;;;3.07;1.97;;;;;;;6.56;100.00;95085.91;4977100;28;20210;-81
2023/12/23 01:19:11;;;;;;;4.40;1.67;;;;;;;6.62;100.00;95089.69;4998847;28;20187;-81
2023/12/23 01:21:36;;;;;;;9.63;2.30;;;;;;;6.55;100.00;95109.25;4996761;28;20179;-81
2023/12/23 01:24:02;;;;;;;8.13;2.70;;;;;;;6.55;100.00;95079.09;4977424;28;20224;-81
2023/12/23 01:26:27;;;;;;;8.17;2.33;;;;;;;6.55;100.00;95078.28;4991750;28;20262;-81
2023/12/23 01:28:53;;;;;;;10.70;3.60;;;;;;;6.64;100.00;95092.97;4997206;28;20195;-81
2023/12/23 01:31:20;;;;;;;9.33;2.40;;;;;;;6.65;100.00;95089.44;4989983;28;20244;-81
2023/12/23 01:33:46;;;;;;;10.10;2.87;;;;;;;6.55;100.00;95084.28;4979120;28;20184;-81
2023/12/23 01:36:11;;;;;;;10.43;2.97;;;;;;;6.61;100.00;95098.38;4990851;28;20219;-81
2023/12/23 01:38:36;;;;;;;11.40;2.63;;;;;;;6.43;100.00;95098.22;4975227;28;20278;-81
2023/12/23 01:41:02;;;;;;;6.47;2.20;;;;;;;6.59;100.00;95088.19;4976466;28;20215;-81
2023/12/23 01:43:28;;;;;;;5.97;2.73;;;;;;;6.59;100.00;95101.09;4998423;28;20289;-81
2023/12/23 01:45:57;;;;;;;9.23;2.60;;;;;;;6.67;100.00;95093.50;4991543;28;20211;-81
2023/12/23 01:48:22;;;;;;;7.47;2.50;;;;;;;6.67;100.00;95126.22;4972099;28;20262;-81
2023/12/23 01:50:49;;;;;;;17.07;3.33;;;;;;;6.65;100.00;95117.81;4992588;28;20680;-81
2023/12/23 01:53:15;;;;;;;8.60;2.43;;;;;;;6.68;100.00;95120.13;4994408;28;20571;-81
2023/12/23 01:55:40;;;;;;;5.60;2.07;;;;;;;6.53;100.00;95123.06;4994751;28;20207;-81
2023/12/23 01:58:06;;;;;;;10.53;2.50;;;;;;;6.64;99.64;95134.25;4990365;28;20661;-81
2023/12/23 02:00:31;;;;;;;7.67;2.60;;;;;;;6.42;100.00;95099.16;4996519;28;20291;-81
2023/12/23 02:02:57;;;;;;;6.97;2.93;;;;;;;6.56;100.00;95129.75;4980334;28;20195;-81
2023/12/23 02:05:22;;;;;;;9.27;2.70;;;;;;;6.68;100.00;95133.03;4979554;28;20234;-81
2023/12/23 02:07:49;;;;;;;6.53;2.10;;;;;;;6.61;100.00;95134.50;4990529;28;20203;-81
2023/12/23 02:10:15;;;;;;;7.40;2.30;;;;;;;6.59;100.00;95136.41;4990859;28;20180;-82
2023/12/23 02:12:52;;;;;;;5.27;2.30;;;;;;;6.55;100.00;95137.63;4994011;28;20191;-81
2023/12/23 02:15:18;;;;;;;7.03;2.60;;;;;;;6.48;100.00;95137.34;4991171;28;20183;-81
2023/12/23 02:17:43;;;;;;;9.20;3.50;;;;;;;6.67;100.00;95147.69;4992152;28;20239;-81
2023/12/23 02:20:09;;;;;;;5.53;2.30;;;;;;;6.47;100.00;95143.44;4992246;28;20720;-81
2023/12/23 02:22:34;;;;;;;7.30;2.30;;;;;;;6.53;100.00;95142.91;4992522;28;20187;-81
2023/12/23 02:25:00;;;;;;;7.93;1.87;;;;;;;6.57;100.00;95128.81;4994524;28;20221;-80
2023/12/23 02:27:30;;;;;;;9.13;2.73;;;;;;;6.41;100.00;95133.66;4977797;28;20222;-81
2023/12/23 02:29:57;;;;;;;5.23;2.07;;;;;;;6.48;100.00;95129.59;4989966;28;20188;-80
2023/12/23 02:32:24;;;;;;;11.27;3.80;;;;;;;6.60;100.00;95127.72;4984461;28;20211;-80
2023/12/23 02:34:49;;;;;;;7.63;2.50;;;;;;;6.53;100.00;95138.56;4994466;28;20207;-80
2023/12/23 02:37:15;;;;;;;9.27;2.60;;;;;;;6.50;100.00;95138.81;4979533;28;20249;-81
2023/12/23 02:39:40;;;;;;;7.17;2.77;;;;;;;6.55;100.00;95141.03;4991692;28;20267;-81
2023/12/23 02:42:06;;;;;;;10.10;3.00;;;;;;;6.60;100.00;95132.88;4987536;28;20204;-81
2023/12/23 02:44:31;;;;;;;8.13;3.27;;;;;;;6.62;99.81;95136.94;4995795;28;20196;-80
2023/12/23 02:46:56;;;;;;;10.10;2.63;;;;;;;6.46;100.00;95122.00;4999682;28;20230;-80
2023/12/23 02:49:22;;;;;;;9.80;2.43;;;;;;;6.51;99.31;95145.63;4979767;28;20195;-80
2023/12/23 02:51:47;;;;;;;8.87;2.20;;;;;;;6.45;98.44;95140.19;5012476;28;20267;-80
2023/12/23 02:54:12;;;;;;;9.00;2.50;;;;;;;6.60;97.77;95148.34;4997872;28;20631;-80
2023/12/23 02:56:38;;;;;;;6.23;2.47;;;;;;;6.58;98.31;95134.78;4981686;28;20226;-81
2023/12/23 02:59:03;;;;;;;6.10;2.30;;;;;;;6.44;99.24;95134.19;4968092;28;20269;-80
2023/12/23 03:01:28;;;;;;;10.37;2.17;;;;;;;6.51;98.65;95137.88;4981180;28;20699;-81
2023/12/23 03:03:54;;;;;;;3.73;1.93;;;;;;;6.58;98.25;95145.91;4982602;28;20578;-81
2023/12/23 03:06:19;;;;;;;5.30;2.17;;;;;;;6.50;98.26;95146.56;5000918;28;20207;-80
2023/12/23 03:08:45;;;;;;;7.67;2.50;;;;;;;6.64;97.78;95149.72;5000908;28;20257;-80
2023/12/23 03:11:10;;;;;;;5.47;2.57;;;;;;;6.53;98.36;95135.97;4998006;28;20183;-81
2023/12/23 03:13:35;;;;;;;6.77;2.37;;;;;;;6.59;98.12;95147.53;4999068;28;20188;-81
2023/12/23 03:16:01;;;;;;;4.87;2.60;;;;;;;6.55;97.99;95141.03;4996882;28;20211;-81
2023/12/23 03:18:26;;;;;;;7.13;2.00;;;;;;;6.69;96.07;95140.63;4983642;28;20191;-81
2023/12/23 03:20:51;;;;;;;8.60;2.37;;;;;;;6.66;96.48;95153.00;4985209;28;20734;-80
2023/12/23 03:23:17;;;;;;;7.97;2.20;;;;;;;6.59;97.73;95144.97;4980666;28;20202;-81
2023/12/23 03:25:42;;;;;;;6.53;2.23;;;;;;;6.57;97.19;95146.84;4982586;28;20208;-80
2023/12/23 03:28:08;;;;;;;4.93;2.43;;;;;;;6.49;97.31;95126.06;5003375;28;20191;-81
2023/12/23 03:30:34;;;;;;;3.80;2.57;;;;;;;6.40;96.54;95137.19;5000978;28;20184;-81
2023/12/23 03:32:59;;;;;;;3.60;1.97;;;;;;;6.54;96.46;95149.72;4997249;28;20200;-81
2023/12/23 03:35:24;;;;;;;7.77;2.47;;;;;;;6.54;96.03;95139.41;4981394;28;20533;-81
2023/12/23 03:37:50;;;;;;;7.83;2.70;;;;;;;6.55;96.36;95135.06;4999148;28;20271;-82
2023/12/23 03:40:15;;;;;;;8.93;2.67;;;;;;;6.60;95.73;95148.34;5000907;28;20184;-80
2023/12/23 03:42:41;;;;;;;7.10;2.47;;;;;;;6.50;96.15;95149.16;4996652;28;20199;-81
2023/12/23 03:45:07;;;;;;;5.03;2.40;;;;;;;6.51;95.17;95129.31;4997878;28;20333;-81
2023/12/23 03:47:33;;;;;;;6.03;2.60;;;;;;;6.66;94.36;95146.06;4982439;28;20196;-80
2023/12/23 03:49:59;;;;;;;4.97;2.07;;;;;;;6.74;94.15;95130.72;4981201;28;20183;-80
2023/12/23 03:52:24;;;;;;;6.70;2.50;;;;;;;6.60;94.62;95115.63;4997561;28;20634;-80
2023/12/23 03:54:50;;;;;;;6.00;2.40;;;;;;;6.29;95.29;95089.13;4994931;28;20615;-80
2023/12/23 03:57:15;;;;;;;7.70;2.00;;;;;;;6.34;94.45;95093.84;5012932;28;20204;-80
2023/12/23 03:59:41;;;;;;;4.77;1.63;;;;;;;6.45;93.91;95084.25;4994971;28;20978;-81
2023/12/23 04:02:06;;;;;;;4.50;2.00;;;;;;;6.51;93.07;95093.22;4982266;28;20195;-80
2023/12/23 04:04:32;;;;;;;2.60;1.90;;;;;;;6.66;92.46;95097.03;4978874;28;20305;-81
2023/12/23 04:06:58;;;;;;;5.17;1.87;;;;;;;6.46;92.48;95072.19;4994405;28;20211;-80
2023/12/23 04:09:23;;;;;;;5.53;2.00;;;;;;;6.59;92.42;95072.72;4983275;28;20187;-80
2023/12/23 04:11:48;;;;;;;4.90;1.80;;;;;;;6.49;91.97;95067.56;4996870;28;20192;-80
2023/12/23 04:14:14;;;;;;;5.07;1.57;;;;;;;6.45;91.40;95071.38;4997480;28;20253;-80
2023/12/23 04:16:39;;;;;;;3.40;2.00;;;;;;;6.69;90.45;95075.31;4991365;28;20406;-81
2023/12/23 04:19:05;;;;;;;6.80;1.60;;;;;;;6.72;90.41;95090.53;4997180;28;20662;-81
2023/12/23 04:21:30;;;;;;;4.43;1.80;;;;;;;6.75;90.18;95093.66;4980408;28;20195;-80
2023/12/23 04:23:56;;;;;;;4.33;1.50;;;;;;;6.56;89.94;95093.63;4978991;28;20588;-80
2023/12/23 04:26:21;;;;;;;5.17;1.70;;;;;;;6.64;89.23;95092.97;4976562;28;20334;-80
2023/12/23 04:28:47;;;;;;;5.93;2.33;;;;;;;6.49;89.86;95090.75;4978043;28;20242;-80
2023/12/23 04:31:12;;;;;;;2.77;1.10;;;;;;;6.63;89.42;95084.41;4998001;28;20576;-80
2023/12/23 04:33:37;;;;;;;5.47;1.63;;;;;;;6.41;90.05;95087.22;4994099;28;20734;-80
2023/12/23 04:36:03;;;;;;;3.50;1.30;;;;;;;6.56;89.77;95067.03;4980308;28;20213;-80
2023/12/23 04:38:28;;;;;;;2.07;1.20;;;;;;;6.64;89.45;95072.31;4991393;28;20204;-80
2023/12/23 04:40:54;;;;;;;5.10;1.53;;;;;;;6.57;89.59;95056.56;4994903;28;20215;-80
2023/12/23 04:43:19;;;;;;;1.90;1.10;;;;;;;6.72;89.65;95064.72;4980063;28;20192;-80
2023/12/23 04:45:44;;;;;;;2.70;1.30;;;;;;;6.43;90.42;95064.69;4997767;28;20774;-80
2023/12/23 04:48:10;;;;;;;2.40;1.50;;;;;;;6.55;90.42;95065.41;4991754;28;20198;-80
2023/12/23 04:50:36;;;;;;;3.40;1.40;;;;;;;6.62;90.21;95058.72;4993544;28;20184;-81
2023/12/23 04:53:01;;;;;;;3.33;1.50;;;;;;;6.47;91.57;95069.47;4993189;28;20282;-81
2023/12/23 04:55:27;;;;;;;2.37;1.30;;;;;;;6.50;91.69;95079.50;4993339;28;20220;-80
2023/12/23 04:57:52;;;;;;;2.63;1.30;;;;;;;6.49;92.59;95064.97;4975154;28;20220;-80
2023/12/23 05:00:17;;;;;;;1.50;1.40;;;;;;;6.71;91.88;95065.66;4977614;28;20187;-80
2023/12/23 05:02:43;;;;;;;2.27;1.30;;;;;;;6.38;93.76;95057.38;4994316;28;20192;-81
2023/12/23 05:05:08;;;;;;;3.17;1.30;;;;;;;6.55;94.08;95073.13;4998811;28;20290;-81
2023/12/23 05:07:34;;;;;;;1.10;0.90;;;;;;;6.49;94.62;95071.91;4993743;28;20579;-80
2023/12/23 05:09:59;;;;;;;1.53;1.00;;;;;;;6.64;94.17;95036.22;4992590;28;20713;-80
2023/12/23 05:12:24;;;;;;;3.10;1.13;;;;;;;6.60;94.37;95043.38;4993201;28;20187;-81
2023/12/23 05:14:51;;;;;;;3.70;1.00;;;;;;;6.73;94.41;95053.44;4980314;28;20189;-81
2023/12/23 05:17:16;;;;;;;0.63;0.63;;;;;;;6.50;94.64;95027.91;4976856;28;20765;-81
2023/12/23 05:19:42;;;;;;;0.57;0.50;;;;;;;6.63;93.88;95070.69;4979304;28;20287;-81
2023/12/23 05:22:07;;;;;;;1.70;0.70;;;;;;;6.45;95.01;95062.81;4993052;28;20271;-80
2023/12/23 05:24:33;;;;;;;0.87;0.60;;;;;;;6.58;94.42;95062.53;4977887;28;20306;-80
2023/12/23 05:26:58;;;;;;;2.57;0.93;;;;;;;6.44;94.54;95067.13;4993687;28;20203;-80
2023/12/23 05:29:23;;;;;;;1.40;0.80;;;;;;;6.51;94.66;95073.38;4997224;28;20191;-81
2023/12/23 05:31:49;;;;;;;1.30;0.80;;;;;;;6.43;94.83;95073.25;4993269;28;20196;-80
2023/12/23 05:34:14;;;;;;;1.20;1.00;;;;;;;6.71;93.51;95068.22;4995312;28;20179;-81
2023/12/23 05:36:39;;;;;;;1.47;0.80;;;;;;;6.54;94.53;95064.59;4998103;28;20328;-80
2023/12/23 05:39:06;;;;;;;1.73;1.00;;;;;;;6.49;94.49;95057.22;4995119;28;20571;-81
2023/12/23 05:41:32;;;;;;;1.60;0.90;;;;;;;6.73;93.61;95046.53;4992406;28;20184;-81
2023/12/23 05:43:57;;;;;;;1.00;0.90;;;;;;;6.60;94.24;95074.34;4978593;28;20207;-81
2023/12/23 05:46:23;;;;;;;1.57;0.87;;;;;;;6.76;93.43;95040.25;4993577;28;20203;-81
2023/12/23 05:48:48;;;;;;;1.63;0.83;;;;;;;6.66;93.89;95050.59;4975278;28;20310;-80
2023/12/23 05:51:13;;;;;;;1.67;1.00;;;;;;;6.58;94.47;95039.31;4975292;28;20279;-81
2023/12/23 05:53:39;;;;;;;1.63;0.90;;;;;;;6.50;95.59;95045.97;4992201;28;20203;-80
2023/12/23 05:56:04;;;;;;;1.83;0.70;;;;;;;6.60;95.81;95050.31;4993225;28;20203;-81
2023/12/23 05:58:30;;;;;;;0.80;0.80;;;;;;;6.51;95.79;95036.47;4992528;28;20231;-80
2023/12/23 06:00:56;;;;;;;2.57;0.80;;;;;;;6.52;96.65;95038.91;4996322;28;20589;-80
2023/12/23 06:03:21;;;;;;;0.77;0.70;;;;;;;6.51;97.37;95041.63;4975117;28;20184;-80
2023/12/23 06:05:47;;;;;;;1.23;0.60;;;;;;;6.63;96.98;95040.56;4995685;28;20207;-81
2023/12/23 06:08:12;;;;;;;1.90;0.60;;;;;;;6.71;96.36;95047.59;4992545;28;20597;-81
2023/12/23 06:10:38;;;;;;;2.30;0.73;;;;;;;6.60;96.98;95040.00;4996010;28;20267;-81
2023/12/23 06:13:04;;;;;;;1.37;0.70;;;;;;;6.70;96.32;95041.63;4992780;28;20721;-81
2023/12/23 06:15:29;;;;;;;2.00;0.60;;;;;;;6.43;97.12;95029.38;4992969;28;20195;-80
2023/12/23 06:17:54;;;;;;;2.10;0.90;;;;;;;6.24;97.78;95026.81;4993726;28;20187;-81
2023/12/23 06:20:20;;;;;;;1.63;0.60;;;;;;;6.46;97.42;95031.72;4997307;28;20257;-81
2023/12/23 06:22:45;;;;;;;1.00;0.60;;;;;;;6.61;96.31;95044.19;4994671;28;20191;-81
2023/12/23 06:25:11;;;;;;;2.03;0.60;;;;;;;6.40;96.83;95050.31;4990461;28;20737;-81
2023/12/23 06:27:36;;;;;;;1.23;0.60;;;;;;;6.65;96.42;95063.63;4995197;28;20194;-81
2023/12/23 06:30:01;;;;;;;1.00;0.70;;;;;;;6.47;97.46;95055.75;4982195;28;20274;-81
2023/12/23 06:32:27;;;;;;;0.67;0.67;;;;;;;6.42;97.03;95045.00;4991752;28;20180;-80
2023/12/23 06:34:52;;;;;;;0.60;0.60;;;;;;;6.29;97.49;95037.53;4975509;28;20187;-80
2023/12/23 06:37:17;;;;;;;0.87;0.57;;;;;;;6.49;97.62;95053.84;4992875;28;20207;-81
2023/12/23 06:39:43;;;;;;;2.30;1.00;;;;;;;6.60;97.60;95047.72;4994729;28;20230;-81
2023/12/23 06:42:08;;;;;;;0.90;0.80;;;;;;;6.48;98.22;95060.75;4993450;28;20215;-81
2023/12/23 06:44:33;;;;;;;4.23;1.33;;;;;;;6.55;97.64;95057.66;4978990;28;20241;-81
2023/12/23 06:46:59;;;;;;;2.10;1.00;;;;;;;6.39;98.97;95071.88;4975867;28;20561;-81
2023/12/23 06:49:24;;;;;;;2.40;1.30;;;;;;;6.38;98.25;95051.41;4990978;28;20219;-81
2023/12/23 06:51:50;;;;;;;1.97;0.97;;;;;;;6.31;98.23;95051.09;4975252;28;20976;-81
2023/12/23 06:54:15;;;;;;;1.27;0.83;;;;;;;6.38;98.35;95049.63;4993319;28;20709;-81
2023/12/23 06:56:41;;;;;;;1.97;0.80;;;;;;;6.24;98.51;95037.13;4990400;28;20211;-81
2023/12/23 06:59:09;;;;;;;1.03;0.80;;;;;;;6.41;98.36;95043.38;4996298;28;20560;-81
2023/12/23 07:01:38;;;;;;;0.50;0.50;;;;;;;6.36;99.11;95054.13;4995203;28;20198;-80
2023/12/23 07:04:04;;;;;;;0.80;0.60;;;;;;;6.32;99.28;95068.22;4981254;28;20214;-81
2023/12/23 07:06:30;;;;;;;0.40;0.40;;;;;;;6.25;98.13;95062.75;4990761;28;20215;-81
2023/12/23 07:08:55;;;;;;;1.10;0.40;;;;;;;6.30;99.03;95052.06;4993369;28;20187;-80
2023/12/23 07:11:20;;;;;;;1.60;0.60;;;;;;;6.34;98.24;95044.84;4978180;28;20201;-81
2023/12/23 07:13:45;;;;;;;1.10;0.87;;;;;;;6.43;98.05;95041.47;4977016;28;20184;-81
2023/12/23 07:16:11;;;;;;;0.60;0.60;;;;;;;6.29;97.95;95031.56;4991780;28;20211;-81
2023/12/23 07:18:36;;;;;;;2.40;0.70;;;;;;;6.50;97.26;95055.47;4974475;28;20188;-80
2023/12/23 07:21:02;;;;;;;0.70;0.70;;;;;;;6.26;97.87;95032.63;4995034;28;20222;-80
2023/12/23 07:23:28;;;;;;;1.30;0.53;;;;;;;6.29;97.60;95047.03;4995084;28;20273;-80
2023/12/23 07:25:53;;;;;;;0.63;0.63;;;;;;;6.20;97.50;95061.53;4977961;28;20243;-80
2023/12/23 07:28:18;;;;;;;0.57;0.50;;;;;;;6.37;97.21;95045.44;4975096;28;20218;-80
2023/12/23 07:30:46;;;;;;;0.73;0.73;;;;;;;6.25;97.66;95054.22;4992662;28;20211;-79
2023/12/23 07:33:12;;;;;;;0.40;0.40;;;;;;;6.34;97.38;95053.41;4993927;28;20662;-79
2023/12/23 07:35:38;;;;;;;1.27;0.80;;;;;;;6.35;97.35;95056.81;4979724;28;20200;-80
2023/12/23 07:38:03;;;;;;;0.70;0.70;;;;;;;6.37;97.07;95040.25;4978176;28;20195;-80
2023/12/23 07:40:29;;;;;;;0.87;0.57;;;;;;;6.31;97.00;95048.53;4995646;28;20183;-79
2023/12/23 07:42:54;;;;;;;1.43;0.50;;;;;;;6.20;96.40;95044.31;4997463;28;20235;-80
2023/12/23 07:45:21;;;;;;;1.43;0.50;;;;;;;6.45;95.47;95055.88;4984304;28;20342;-79
2023/12/23 07:47:47;;;;;;;0.80;0.67;;;;;;;6.19;95.97;95062.50;4996764;28;20184;-80
2023/12/23 07:50:13;;;;;;;0.53;0.40;;;;;;;6.35;95.89;95059.38;4994023;28;20227;-79
2023/12/23 07:52:39;;;;;;;1.27;0.60;;;;;;;6.52;95.69;95062.13;4994350;28;20184;-80
2023/12/23 07:55:05;;;;;;;1.33;0.70;;;;;;;6.66;94.89;95057.53;4982422;28;20194;-80
2023/12/23 07:57:31;;;;;;;0.50;0.40;;;;;;;6.55;95.19;95068.78;4978592;28;20661;-80
2023/12/23 07:59:56;;;;;;;1.57;0.70;;;;;;;6.62;94.97;95069.03;4977891;28;20184;-79
2023/12/23 08:02:22;;;;;;;0.57;0.47;;;;;;;6.59;95.08;95064.16;4994524;28;20258;-79
2023/12/23 08:04:47;;;;;;;0.77;0.50;;;;;;;6.62;95.19;95063.88;4998698;28;20227;-79
2023/12/23 08:07:12;;;;;;;1.73;0.60;;;;;;;6.35;95.36;95046.47;4995869;28;20247;-79
2023/12/23 08:09:38;;;;;;;2.53;1.17;;;;;;;6.60;94.55;95076.94;4994004;28;20212;-80
2023/12/23 08:12:04;;;;;;;5.67;2.60;;;;;;;6.65;93.42;95090.25;4978901;28;20299;-80
2023/12/23 08:14:29;;;;;;;8.20;3.93;;;;;;;6.64;92.91;95072.31;4996652;28;20568;-79
2023/12/23 08:16:55;;;;;;;3.70;2.17;;;;;;;6.65;92.40;95079.94;4978601;28;20219;-79
2023/12/23 08:19:20;;;;;;;4.10;1.97;;;;;;;6.70;92.27;95071.75;4982792;28;20202;-80
2023/12/23 08:21:45;;;;;;;5.63;2.40;;;;;;;6.79;91.85;95073.53;4993945;28;20192;-80
2023/12/23 08:24:13;;;;;;;0.50;0.50;;;;;;;6.68;92.08;95071.91;4994217;28;20228;-80
2023/12/23 08:26:38;;;;;;;3.63;2.20;;;;;;;6.53;92.48;95071.47;4977285;28;20223;-80
2023/12/23 08:29:03;;;;;;;1.07;0.70;;;;;;;6.61;92.36;95062.25;4982213;28;20210;-80
2023/12/23 08:31:29;;;;;;;1.87;0.60;;;;;;;6.68;92.15;95056.44;4994800;28;20187;-80
2023/12/23 08:33:54;;;;;;;2.63;0.63;;;;;;;6.68;91.79;95084.00;4978127;28;20203;-80
2023/12/23 08:36:19;;;;;;;1.10;1.00;;;;;;;6.64;91.89;95082.66;4979700;28;20208;-80
2023/12/23 08:38:45;;;;;;;1.60;1.00;;;;;;;6.78;91.25;95087.38;4979261;28;20226;-79
2023/12/23 08:41:10;;;;;;;1.27;0.90;;;;;;;6.83;91.20;95056.84;4996200;28;20222;-80
2023/12/23 08:43:35;;;;;;;1.53;0.40;;;;;;;6.52;92.75;95048.41;4991908;28;20274;-80
2023/12/23 08:46:01;;;;;;;1.37;0.70;;;;;;;6.68;92.26;95073.66;4997934;28;20218;-80
2023/12/23 08:48:26;;;;;;;0.40;0.40;;;;;;;6.62;92.97;95081.94;4979719;28;20203;-79
2023/12/23 08:50:52;;;;;;;0.60;0.60;;;;;;;6.63;92.55;95081.84;4995770;28;20198;-80
2023/12/23 08:53:18;;;;;;;0.60;0.60;;;;;;;6.57;92.33;95077.19;4978033;28;20172;-80
2023/12/23 08:55:44;;;;;;;1.27;0.67;;;;;;;6.66;92.23;95086.72;4978817;28;20211;-79
2023/12/23 08:58:11;;;;;;;0.40;0.40;;;;;;;6.67;91.81;95079.78;4995060;28;20183;-82
2023/12/23 09:00:37;;;;;;;0.83;0.50;;;;;;;6.57;92.53;95081.56;4993527;28;20179;-80
2023/12/23 09:03:03;;;;;;;1.67;0.70;;;;;;;6.69;92.65;95085.63;4977662;28;20265;-85
2023/12/23 09:05:28;;;;;;;0.77;0.50;;;;;;;6.76;91.82;95086.72;4993917;28;20196;-79
2023/12/23 09:07:54;;;;;;;1.53;0.63;;;;;;;6.73;92.22;95092.16;4994598;28;20661;-80
2023/12/23 09:10:19;;;;;;;0.40;0.40;;;;;;;6.81;91.32;95092.31;4979450;28;20659;-80
2023/12/23 09:12:45;;;;;;;1.87;0.57;;;;;;;6.88;91.33;95101.09;4993007;28;20203;-80
2023/12/23 09:15:10;;;;;;;0.63;0.40;;;;;;;6.68;90.63;95089.97;4992900;28;20230;-79
2023/12/23 09:17:35;;;;;;;0.40;0.40;;;;;;;7.01;89.92;95101.66;4976135;28;20191;-79
2023/12/23 09:20:04;;;;;;;0.57;0.50;;;;;;;6.83;90.22;95098.13;5000827;28;20218;-79
2023/12/23 09:22:30;;;;;;;0.73;0.40;;;;;;;6.88;89.62;95103.69;4956370;28;20183;-80
2023/12/23 09:24:55;;;;;;;0.50;0.50;;;;;;;7.04;88.69;95095.41;4968891;28;20562;-80
2023/12/23 09:27:20;;;;;;;1.63;1.23;;;;;;;6.98;88.72;95096.78;4988217;28;20305;-78
2023/12/23 09:29:46;;;;;;;1.33;1.10;;;;;;;6.95;89.23;95115.09;4994207;28;20341;-79
2023/12/23 09:32:11;;;;;;;3.27;2.50;;;;;;;6.99;88.66;95108.72;4995038;28;20199;-80
2023/12/23 09:34:36;;;;;;;1.93;1.30;;;;;;;6.83;88.33;95113.63;4991348;28;20651;-80
2023/12/23 09:37:02;;;;;;;0.50;0.50;;;;;;;6.85;89.11;95116.88;4976315;28;20210;-80
2023/12/23 09:39:28;;;;;;;1.30;0.50;;;;;;;6.86;88.95;95134.00;4994890;28;20199;-80
2023/12/23 09:41:54;;;;;;;0.60;0.60;;;;;;;6.84;89.34;95112.66;4997357;28;20327;-80
2023/12/23 09:44:20;;;;;;;0.40;0.40;;;;;;;6.89;89.51;95132.91;4996945;28;20198;-80
2023/12/23 09:46:45;;;;;;;0.40;0.40;;;;;;;6.96;89.56;95132.22;4979045;28;20697;-79
2023/12/23 09:49:11;;;;;;;0.47;0.47;;;;;;;7.12;89.54;95126.53;4992246;28;20186;-80
2023/12/23 09:51:36;;;;;;;0.70;0.70;;;;;;;6.89;89.79;95107.94;4977328;28;20190;-80
2023/12/23 09:54:03;;;;;;;0.70;0.60;;;;;;;6.87;90.29;95101.25;4994003;28;20641;-80
2023/12/23 09:56:29;;;;;;;0.50;0.40;;;;;;;6.64;90.69;95118.78;4973152;28;20208;-79
2023/12/23 09:58:55;;;;;;;1.17;0.50;;;;;;;6.73;90.30;95112.81;4983658;28;20204;-79
2023/12/23 10:01:20;;;;;;;0.30;0.30;;;;;;;6.84;90.22;95117.81;4993468;28;20203;-80
2023/12/23 10:03:47;;;;;;;0.50;0.50;;;;;;;6.94;89.37;95118.63;4993656;28;20184;-79
2023/12/23 10:06:16;;;;;;;0.30;0.30;;;;;;;7.12;88.22;95113.59;4996071;28;20266;-80
2023/12/23 10:08:42;;;;;;;1.30;0.40;;;;;;;7.13;88.99;95114.44;4990995;28;20184;-79
2023/12/23 10:11:08;;;;;;;0.27;0.27;;;;;;;6.77;89.60;95114.97;4994856;28;20671;-79
2023/12/23 10:13:33;;;;;;;0.20;0.20;;;;;;;6.98;90.01;95120.00;4994921;28;20179;-80
2023/12/23 10:15:58;;;;;;;0.20;0.20;;;;;;;7.17;88.77;95116.59;4981136;28;20312;-80
2023/12/23 10:18:24;;;;;;;1.63;0.70;;;;;;;7.35;88.63;95129.63;4990084;28;20188;-79
2023/12/23 10:20:49;;;;;;;0.40;0.40;;;;;;;7.14;89.46;95154.78;4978479;28;20180;-78
2023/12/23 10:23:15;;;;;;;0.50;0.50;;;;;;;7.10;89.56;95120.69;4993420;28;20187;-78
2023/12/23 10:25:40;;;;;;;0.50;0.50;;;;;;;7.20;89.39;95089.69;4994351;28;20235;-77
2023/12/23 10:28:07;;;;;;;3.03;0.50;;;;;;;6.91;90.17;95118.94;4975856;28;20199;-80
2023/12/23 10:30:34;;;;;;;0.67;0.60;;;;;;;6.87;90.28;95120.13;4992800;28;20218;-80
2023/12/23 10:33:05;;;;;;;0.47;0.47;;;;;;;6.98;90.32;95107.09;4977364;28;20642;-77
2023/12/23 10:35:33;;;;;;;0.40;0.40;;;;;;;6.75;91.47;95113.47;4976314;28;20253;-80
2023/12/23 10:38:02;;;;;;;0.60;0.50;;;;;;;6.59;91.26;95103.69;4977686;28;20188;-77
2023/12/23 10:40:28;;;;;;;0.30;0.30;;;;;;;6.90;90.26;95104.38;4988527;28;20190;-77
2023/12/23 10:42:54;;;;;;;0.33;0.33;;;;;;;6.66;90.80;95124.59;4974627;28;20184;-78
2023/12/23 10:45:19;;;;;;;1.00;0.67;;;;;;;6.93;90.41;95122.19;4974858;28;20250;-78
2023/12/23 10:47:46;;;;;;;0.93;0.50;;;;;;;6.68;91.33;95123.50;4991928;28;20192;-78
2023/12/23 10:50:12;;;;;;;1.30;1.17;;;;;;;6.81;91.05;95113.75;4991262;28;20223;-77
2023/12/23 10:52:37;;;;;;;1.30;0.97;;;;;;;6.85;91.62;95134.13;4992124;28;20192;-77
2023/12/23 10:55:03;;;;;;;0.67;0.67;;;;;;;6.98;91.04;95108.84;4980634;28;20183;-78
2023/12/23 10:57:30;;;;;;;0.67;0.67;;;;;;;6.82;90.87;95114.56;4987093;28;20283;-78
2023/12/23 10:59:56;;;;;;;1.33;0.97;;;;;;;7.03;90.06;95123.00;4994131;28;20215;-77
2023/12/23 11:02:28;;;;;;;1.30;0.90;;;;;;;6.85;89.82;95119.47;4974237;28;20662;-78
2023/12/23 11:04:54;;;;;;;0.77;0.77;;;;;;;6.74;90.51;95120.41;4979460;28;20207;-77
2023/12/23 11:07:24;;;;;;;0.60;0.60;;;;;;;6.66;90.84;95124.59;4996379;28;20273;-77
2023/12/23 11:09:51;;;;;;;1.77;1.40;;;;;;;6.99;89.55;95147.47;4980804;28;20653;-78
2023/12/23 11:12:17;;;;;;;1.90;1.13;;;;;;;6.85;89.68;95147.84;4994257;28;20199;-78
2023/12/23 11:14:43;;;;;;;2.90;1.00;;;;;;;6.92;89.18;95143.78;4980030;28;20183;-78
2023/12/23 11:17:28;;;;;;;1.10;1.00;;;;;;;6.80;89.76;95140.53;4996606;28;20214;-77
2023/12/23 11:20:02;;;;;;;1.20;1.10;;;;;;;6.99;89.33;95134.56;4998658;28;20255;-77
2023/12/23 11:22:29;;;;;;;1.47;0.77;;;;;;;6.97;88.61;95140.78;4995925;28;20191;-78
2023/12/23 11:24:55;;;;;;;1.17;0.70;;;;;;;6.75;88.90;95134.13;4980060;28;20204;-79
2023/12/23 11:27:39;;;;;;;1.20;1.10;;;;;;;6.97;88.97;95126.09;4996333;28;20239;-77
2023/12/23 11:30:05;;;;;;;0.87;0.50;;;;;;;6.80;89.72;95137.09;4982310;28;20191;-76
2023/12/23 11:32:37;;;;;;;1.40;0.50;;;;;;;7.12;89.02;95141.19;4994000;28;20211;-78